Terminal Aerodrome Forecast
Issued by NWS Bismarck, ND

Home | Current Version | Previous Version | Graphics & Text | Print | Product List | Glossary On
Versions: 1 2 3 4 5 6 7 8 9 10 11 12 13 14 15 16
000
FTUS43 KBIS 141643 AAB
TAFISN
TAF AMD
KISN 141643Z 1417/1512 34017G23KT P6SM OVC045
      TEMPO 1417/1418 FEW040
     FM141800 33013G21KT P6SM SKC
     FM142300 34011KT P6SM SKC=

USA.gov is the U.S. government's official web portal to all federal, state and local government web resources and services.